Terminal Aerodrome Forecast
Issued by NWS

Home | Current Version | Previous Version | Text Only | Print | Product List | Glossary On
Versions: 1 2 3 4 5 6 7 8 9 10 11 12 13 14
014
FTUS44 KTSA 241720
TAFFYV
TAF
KFYV 241720Z 2418/2518 18012KT P6SM SCT040
     FM250100 VRB03KT P6SM FEW050 SCT250
      TEMPO 2511/2513 6SM BR
     FM251500 18005KT P6SM SCT250=

USA.gov is the U.S. government's official web portal to all federal, state and local government web resources and services.